createdAt,value
2022-08-09T00:02:18.197Z,4.80
2022-08-09T00:07:13.446Z,5.75
2022-08-09T00:12:08.078Z,5.45
2022-08-09T00:17:02.365Z,4.85
2022-08-09T00:21:57.208Z,5.00
2022-08-09T00:26:51.460Z,4.60
2022-08-09T00:31:59.042Z,5.72
2022-08-09T00:36:55.683Z,5.82
2022-08-09T00:44:12.957Z,8.23
2022-08-09T00:47:05.996Z,8.65
2022-08-09T00:52:05.170Z,10.05
2022-08-09T00:57:00.948Z,10.10
2022-08-09T01:01:55.615Z,10.38
2022-08-09T01:07:03.563Z,9.80
2022-08-09T01:12:21.241Z,10.27
2022-08-09T01:17:26.202Z,10.90
2022-08-09T01:22:51.267Z,10.57
2022-08-09T01:27:52.821Z,9.57
2022-08-09T01:32:47.357Z,10.25
2022-08-09T01:38:09.470Z,8.68
2022-08-09T01:42:56.992Z,9.50
2022-08-09T01:47:51.641Z,8.98
2022-08-09T01:52:45.427Z,8.57
2022-08-09T01:57:46.175Z,9.15
2022-08-09T02:02:50.868Z,8.93
2022-08-09T02:08:40.185Z,8.93
2022-08-09T02:13:12.925Z,9.10
2022-08-09T02:18:10.174Z,8.57
2022-08-09T02:23:21.440Z,10.60
2022-08-09T02:33:16.864Z,11.32
2022-08-09T02:38:11.828Z,10.10
2022-08-09T02:43:22.233Z,10.63
2022-08-09T02:48:30.481Z,9.38
2022-08-09T02:53:31.960Z,9.38
2022-08-09T02:58:37.438Z,9.52
2022-08-09T03:03:37.303Z,8.82
2022-08-09T03:08:47.528Z,10.85
2022-08-09T03:13:43.642Z,9.13
2022-08-09T03:18:50.599Z,9.38
2022-08-09T03:24:03.643Z,8.27
2022-08-09T03:28:59.698Z,9.35
2022-08-09T03:33:56.507Z,9.95
2022-08-09T03:38:52.225Z,9.80
2022-08-09T03:44:02.964Z,10.32
2022-08-09T03:49:03.914Z,10.52
2022-08-09T03:54:00.481Z,9.77
2022-08-09T03:58:56.319Z,10.50
2022-08-09T04:04:02.103Z,10.30
2022-08-09T04:08:57.050Z,10.55
2022-08-09T04:14:53.892Z,10.15
2022-08-09T04:19:03.643Z,9.63
2022-08-09T04:24:06.962Z,9.38
2022-08-09T04:29:05.205Z,9.63
2022-08-09T04:34:03.706Z,8.60
2022-08-09T04:39:18.586Z,8.93
2022-08-09T04:44:14.721Z,9.38
2022-08-09T04:49:08.898Z,8.13
2022-08-09T04:54:08.722Z,8.63
2022-08-09T04:59:07.874Z,10.40
2022-08-09T05:04:09.856Z,8.82
2022-08-09T05:09:04.793Z,11.43
2022-08-09T05:13:58.866Z,9.73
2022-08-09T05:18:57.786Z,10.07
2022-08-09T05:24:00.239Z,10.25
2022-08-09T05:28:56.953Z,11.47
2022-08-09T05:33:51.028Z,9.90
2022-08-09T05:38:46.138Z,11.85
2022-08-09T05:43:44.964Z,11.48
2022-08-09T05:48:45.495Z,12.05
2022-08-09T05:54:05.445Z,11.00
2022-08-09T05:58:59.630Z,11.63
2022-08-09T06:03:58.095Z,11.80
2022-08-09T06:08:52.654Z,9.85
2022-08-09T06:13:47.583Z,10.63
2022-08-09T06:18:43.265Z,10.55
2022-08-09T06:23:55.485Z,10.45
2022-08-09T06:28:59.655Z,10.93
2022-08-09T06:33:59.073Z,10.88
2022-08-09T06:38:54.105Z,10.07
2022-08-09T06:43:52.988Z,10.25
2022-08-09T06:48:46.869Z,10.73
2022-08-09T06:53:44.275Z,9.82
2022-08-09T07:00:47.100Z,11.43
2022-08-09T07:03:54.766Z,11.50
2022-08-09T07:08:51.277Z,10.93
2022-08-09T07:14:05.733Z,10.25
2022-08-09T07:18:57.393Z,10.98
2022-08-09T07:23:58.136Z,9.98
2022-08-09T07:29:09.092Z,11.15
2022-08-09T07:34:06.073Z,10.32
2022-08-09T07:39:02.479Z,11.45
2022-08-09T07:43:56.784Z,11.35
2022-08-09T07:48:59.287Z,12.10
2022-08-09T07:54:05.816Z,11.50
2022-08-09T07:59:01.702Z,10.65
2022-08-09T08:03:55.464Z,10.98
2022-08-09T08:09:03.157Z,11.70
2022-08-09T08:14:04.850Z,9.63
2022-08-09T08:19:04.358Z,9.93
2022-08-09T08:24:11.430Z,9.50
2022-08-09T08:29:08.551Z,9.60
2022-08-09T08:34:03.747Z,9.68
2022-08-09T08:39:06.645Z,8.63
2022-08-09T08:44:10.414Z,9.45
2022-08-09T08:49:12.767Z,8.90
2022-08-09T08:54:20.612Z,7.88
2022-08-09T08:59:28.044Z,7.80
2022-08-09T09:04:47.770Z,6.57
2022-08-09T09:10:01.676Z,8.90
2022-08-09T09:15:00.309Z,7.22
2022-08-09T09:19:55.203Z,4.45
2022-08-09T09:24:55.529Z,4.90
2022-08-09T09:30:19.034Z,5.70
2022-08-09T09:35:29.405Z,4.70
2022-08-09T09:40:46.577Z,4.32
2022-08-09T09:46:39.567Z,3.75
2022-08-09T09:51:07.068Z,4.07
2022-08-09T10:01:01.174Z,4.25
2022-08-09T10:06:04.134Z,3.92
2022-08-09T10:10:59.641Z,4.50
2022-08-09T10:16:55.734Z,3.97
2022-08-09T10:21:13.411Z,3.88
2022-08-09T10:26:10.897Z,4.38
2022-08-09T10:36:21.417Z,4.63
2022-08-09T10:41:17.789Z,4.20
2022-08-09T10:46:52.533Z,3.95
2022-08-09T10:52:07.421Z,4.10
2022-08-09T10:57:14.653Z,4.65
2022-08-09T11:03:10.915Z,4.38
2022-08-09T11:07:58.005Z,4.20
2022-08-09T11:13:49.938Z,4.28
2022-08-09T11:18:51.637Z,4.35
2022-08-09T11:23:59.810Z,4.50
2022-08-09T11:28:56.351Z,4.25
2022-08-09T11:33:54.363Z,4.45
2022-08-09T11:39:01.502Z,4.28
2022-08-09T11:43:55.752Z,4.10
2022-08-09T11:48:54.767Z,3.80
2022-08-09T11:54:13.912Z,4.27
2022-08-09T11:59:13.427Z,4.03
2022-08-09T12:04:20.775Z,3.95
2022-08-09T12:09:33.988Z,3.58
2022-08-09T12:14:36.946Z,4.38
2022-08-09T12:19:34.785Z,3.75
2022-08-09T12:29:44.751Z,4.10
2022-08-09T12:34:45.815Z,3.92
2022-08-09T12:39:39.966Z,3.90
2022-08-09T12:44:37.210Z,3.75
2022-08-09T12:49:34.137Z,3.58
2022-08-09T12:54:29.120Z,4.03
2022-08-09T12:59:40.099Z,3.75
2022-08-09T13:04:39.850Z,3.28
2022-08-09T13:09:38.281Z,3.85
2022-08-09T13:14:41.857Z,3.65
2022-08-09T13:20:09.334Z,3.75
2022-08-09T13:24:55.571Z,4.00
2022-08-09T13:30:03.850Z,4.20
2022-08-09T13:35:07.859Z,3.50
2022-08-09T13:41:46.791Z,3.47
2022-08-09T13:45:32.220Z,3.20
2022-08-09T13:50:38.081Z,3.60
2022-08-09T13:55:33.752Z,3.20
2022-08-09T14:00:29.695Z,2.80
2022-08-09T14:05:58.314Z,3.10
2022-08-09T14:10:50.395Z,3.03
2022-08-09T14:16:09.554Z,3.17
2022-08-09T14:21:02.090Z,2.47
2022-08-09T14:26:01.330Z,2.42
2022-08-09T14:30:56.317Z,2.58
2022-08-09T14:35:53.491Z,2.50
2022-08-09T14:41:01.312Z,2.20
2022-08-09T14:46:54.265Z,2.35
2022-08-09T14:51:09.722Z,2.75
2022-08-09T14:56:18.648Z,2.50
2022-08-09T15:01:20.622Z,2.38
2022-08-09T15:06:15.447Z,2.47
2022-08-09T15:11:09.048Z,2.30
2022-08-09T15:16:08.027Z,2.50
2022-08-09T15:21:55.136Z,2.50
2022-08-09T15:26:30.876Z,2.70
2022-08-09T15:31:41.698Z,2.67
2022-08-09T15:36:36.118Z,2.63
2022-08-09T15:41:31.539Z,2.50
2022-08-09T15:46:33.084Z,2.53
2022-08-09T15:52:03.980Z,2.25
2022-08-09T15:56:41.528Z,2.60
2022-08-09T16:01:39.190Z,2.60
2022-08-09T16:06:34.674Z,2.60
2022-08-09T16:11:32.920Z,3.05
2022-08-09T16:16:32.184Z,3.45
2022-08-09T16:21:26.574Z,3.10
2022-08-09T16:26:34.823Z,2.97
2022-08-09T16:32:10.490Z,2.92
2022-08-09T16:36:43.100Z,3.28
2022-08-09T16:42:02.722Z,3.08
2022-08-09T16:46:55.535Z,2.90
2022-08-09T16:51:56.094Z,3.20
2022-08-09T16:56:50.227Z,3.20
2022-08-09T17:01:51.158Z,3.20
2022-08-09T17:07:09.217Z,3.35
2022-08-09T17:12:02.231Z,3.92
2022-08-09T17:17:02.674Z,3.65
2022-08-09T17:21:57.432Z,3.65
2022-08-09T17:26:52.025Z,4.10
2022-08-09T17:31:49.218Z,3.88
2022-08-09T17:36:53.346Z,3.85
2022-08-09T17:41:52.577Z,3.67
2022-08-09T17:46:55.321Z,4.38
2022-08-09T17:51:52.981Z,4.05
2022-08-09T17:56:47.446Z,3.90
2022-08-09T18:02:06.213Z,3.60
2022-08-09T18:06:55.860Z,4.00
2022-08-09T18:12:15.105Z,3.97
2022-08-09T18:17:06.871Z,4.30
2022-08-09T18:22:03.394Z,3.97
2022-08-09T18:26:57.500Z,4.25
2022-08-09T18:31:55.696Z,4.50
2022-08-09T18:36:50.260Z,3.78
2022-08-09T18:41:52.717Z,4.45
2022-08-09T18:47:07.516Z,9.05
2022-08-09T18:52:03.360Z,23.02
2022-08-09T18:57:05.322Z,9.43
2022-08-09T19:02:03.045Z,4.10
2022-08-09T19:06:57.809Z,3.65
2022-08-09T19:11:54.845Z,3.40
2022-08-09T19:16:50.178Z,3.75
2022-08-09T19:21:47.890Z,3.75
2022-08-09T19:26:48.927Z,3.72
2022-08-09T19:31:46.246Z,3.67
2022-08-09T19:36:39.532Z,3.60
2022-08-09T19:41:36.663Z,4.20
2022-08-09T19:46:50.933Z,3.72
2022-08-09T19:51:55.197Z,3.77
2022-08-09T19:56:50.304Z,3.83
2022-08-09T20:01:52.395Z,3.80
2022-08-09T20:06:57.375Z,3.60
2022-08-09T20:11:51.864Z,4.03
2022-08-09T20:16:53.477Z,3.92
2022-08-09T20:21:56.826Z,3.60
2022-08-09T20:26:51.927Z,4.68
2022-08-09T20:32:30.971Z,4.50
2022-08-09T20:36:59.701Z,3.70
2022-08-09T20:41:53.787Z,4.10
2022-08-09T20:46:49.590Z,4.15
2022-08-09T20:51:44.239Z,3.67
2022-08-09T20:56:37.395Z,3.50
2022-08-09T21:01:50.451Z,4.00
2022-08-09T21:17:02.132Z,5.32
2022-08-09T21:22:36.333Z,5.32
2022-08-09T21:27:52.043Z,6.10
2022-08-09T21:32:47.288Z,5.45
2022-08-09T21:38:00.620Z,5.32
2022-08-09T21:42:54.581Z,5.78
2022-08-09T21:47:51.114Z,5.25
2022-08-09T21:52:47.002Z,5.20
2022-08-09T21:57:59.071Z,4.85
2022-08-09T22:02:59.148Z,5.20
2022-08-09T22:07:56.755Z,5.13
2022-08-09T22:12:50.151Z,5.03
2022-08-09T22:17:46.201Z,5.47
2022-08-09T22:22:41.492Z,4.55
2022-08-09T22:27:35.315Z,4.82
2022-08-09T22:32:31.734Z,5.00
2022-08-09T22:37:25.677Z,5.25
2022-08-09T22:42:24.213Z,4.65
2022-08-09T22:48:10.151Z,5.05
2022-08-09T22:52:32.922Z,5.45
2022-08-09T22:57:35.686Z,5.60
2022-08-09T23:02:40.887Z,4.95
2022-08-09T23:08:23.392Z,4.85
2022-08-09T23:13:13.012Z,5.10
2022-08-09T23:18:07.253Z,5.30
2022-08-09T23:23:01.112Z,5.43
2022-08-09T23:28:00.544Z,5.13
2022-08-09T23:33:09.115Z,5.30
2022-08-09T23:38:02.323Z,5.25
2022-08-09T23:42:56.438Z,5.28
2022-08-09T23:47:48.302Z,5.07
2022-08-09T23:52:41.914Z,4.72
2022-08-09T23:57:46.865Z,5.38
